Time;durP1;ratioP1;P1;durP2;ratioP2;P2;SDS_P1;SDS_P2;PMS_P1;PMS_P2;Temp;Humidity;BMP_temperature;BMP_pressure;BME280_temperature;BME280_humidity;BME280_pressure;Samples;Min_cycle;Max_cycle;Signal;HPM_P1;HPM_P2
2022/04/18 00:01:57;;;;;;;38.13;17.15;;;;;;;10.19;79.19;100534.75;6223234;22;20016;-73
2022/04/18 00:04:23;;;;;;;50.40;22.63;;;;;;;10.18;79.71;100535.81;6272586;22;20007;-72
2022/04/18 00:06:48;;;;;;;50.25;22.42;;;;;;;10.07;80.28;100532.16;6248808;22;20008;-73
2022/04/18 00:09:14;;;;;;;48.67;20.88;;;;;;;10.00;81.34;100528.00;6242798;22;20077;-72
2022/04/18 00:11:39;;;;;;;43.65;19.80;;;;;;;10.09;80.66;100529.16;6273706;22;20027;-72
2022/04/18 00:14:12;;;;;;;41.20;20.17;;;;;;;10.21;80.65;100532.56;6223035;22;20027;-72
2022/04/18 00:16:37;;;;;;;26.20;14.02;;;;;;;10.37;79.67;100530.00;6246946;22;20016;-73
2022/04/18 00:19:03;;;;;;;28.88;13.60;;;;;;;10.40;79.10;100530.28;6250222;22;20019;-74
2022/04/18 00:21:28;;;;;;;30.38;15.73;;;;;;;10.33;79.00;100523.38;6277290;22;20042;-73
2022/04/18 00:23:54;;;;;;;45.03;21.25;;;;;;;10.23;79.80;100527.66;6277444;22;20024;-73
2022/04/18 00:26:19;;;;;;;40.50;16.65;;;;;;;10.10;79.56;100522.63;6252287;22;20031;-73
2022/04/18 00:28:45;;;;;;;52.78;22.70;;;;;;;10.01;81.07;100526.94;6275044;22;20026;-72
2022/04/18 00:31:10;;;;;;;49.17;23.80;;;;;;;10.01;81.55;100518.75;6278593;22;20011;-74
2022/04/18 00:33:36;;;;;;;39.03;19.90;;;;;;;10.15;81.06;100525.41;6275883;22;20010;-73
2022/04/18 00:36:03;;;;;;;46.65;21.50;;;;;;;10.23;80.82;100522.19;6275800;22;20035;-72
2022/04/18 00:38:28;;;;;;;50.42;22.38;;;;;;;10.33;80.77;100526.91;6247948;22;20010;-72
2022/04/18 00:40:54;;;;;;;40.45;18.27;;;;;;;10.42;81.20;100521.81;6247468;22;20008;-72
2022/04/18 00:43:46;;;;;;;48.47;20.65;;;;;;;10.44;80.39;100525.09;6271501;22;20586;-74
2022/04/18 00:46:14;;;;;;;32.75;17.98;;;;;;;10.30;79.99;100520.06;6272960;22;20006;-72
2022/04/18 00:48:41;;;;;;;30.05;14.82;;;;;;;10.10;80.32;100515.28;6222185;22;20019;-73
2022/04/18 00:51:19;;;;;;;30.33;15.18;;;;;;;9.93;80.69;100512.66;6271395;22;20007;-72
2022/04/18 00:53:45;;;;;;;43.85;20.23;;;;;;;9.90;81.42;100505.00;6271243;22;20461;-72
2022/04/18 00:56:15;;;;;;;35.15;16.92;;;;;;;9.90;81.73;100509.59;6245555;22;20014;-72
2022/04/18 00:58:41;;;;;;;35.20;17.20;;;;;;;9.83;82.00;100506.25;6246714;22;20008;-73
2022/04/18 01:01:08;;;;;;;39.92;19.00;;;;;;;9.71;82.23;100506.44;6275467;22;20000;-72
2022/04/18 01:03:33;;;;;;;37.05;15.93;;;;;;;9.54;82.36;100518.28;6275358;22;20011;-72
2022/04/18 01:06:00;;;;;;;33.35;15.85;;;;;;;9.38;82.86;100508.28;6276518;22;20015;-72
2022/04/18 01:08:28;;;;;;;39.42;18.52;;;;;;;9.24;83.06;100502.38;6247601;22;20623;-73
2022/04/18 01:10:54;;;;;;;32.08;15.18;;;;;;;9.15;83.78;100509.38;6247731;22;20007;-71
2022/04/18 01:13:20;;;;;;;37.72;17.63;;;;;;;9.11;84.53;100513.69;6275688;22;20083;-73
2022/04/18 01:15:45;;;;;;;32.08;16.90;;;;;;;9.17;84.38;100515.41;6278715;22;20007;-72
2022/04/18 01:18:10;;;;;;;31.90;15.43;;;;;;;9.29;83.85;100515.25;6251568;22;20014;-72
2022/04/18 01:20:36;;;;;;;42.17;19.55;;;;;;;9.28;84.25;100508.19;6249789;22;20000;-72
2022/04/18 01:23:05;;;;;;;36.10;16.33;;;;;;;9.22;83.80;100519.00;6277882;22;20016;-72
2022/04/18 01:30:59;;;;;;;22.83;12.20;;;;;;;8.69;84.71;100512.34;6274725;22;20022;-72
2022/04/18 01:33:24;;;;;;;23.33;11.82;;;;;;;8.56;84.83;100499.91;6246115;22;20722;-71
2022/04/18 01:35:50;;;;;;;30.95;15.60;;;;;;;8.51;85.54;100506.09;6247323;22;20530;-72
2022/04/18 01:38:15;;;;;;;23.13;10.95;;;;;;;8.45;85.46;100492.63;6274720;22;20010;-72
2022/04/18 01:40:41;;;;;;;20.75;9.55;;;;;;;8.49;85.47;100508.22;6275063;22;20011;-72
2022/04/18 01:43:07;;;;;;;16.63;8.52;;;;;;;8.55;85.76;100507.22;6249338;22;20014;-73
2022/04/18 01:45:33;;;;;;;21.30;11.45;;;;;;;8.61;85.23;100501.88;6247964;22;20061;-72
2022/04/18 01:47:58;;;;;;;23.13;10.70;;;;;;;8.58;84.72;100510.53;6221898;22;20693;-71
2022/04/18 01:50:23;;;;;;;22.73;10.15;;;;;;;8.50;85.85;100512.63;6221833;22;20016;-72
2022/04/18 01:52:49;;;;;;;23.55;11.60;;;;;;;8.38;85.71;100500.94;6275388;22;20063;-72
2022/04/18 01:55:14;;;;;;;24.52;12.30;;;;;;;8.35;85.92;100504.16;6273335;22;20004;-72
2022/04/18 01:57:40;;;;;;;33.88;16.58;;;;;;;8.29;86.46;100507.91;6243655;22;20106;-71
2022/04/18 02:00:06;;;;;;;34.85;17.30;;;;;;;8.30;87.26;100509.56;6272095;22;20004;-72
2022/04/18 02:02:32;;;;;;;44.05;19.60;;;;;;;8.27;88.34;100504.63;6272946;22;20053;-72
2022/04/18 02:04:57;;;;;;;45.70;19.52;;;;;;;8.24;88.38;100513.28;6246377;22;20074;-72
2022/04/18 02:07:23;;;;;;;37.83;19.50;;;;;;;8.17;89.22;100503.34;6247259;22;20011;-71
2022/04/18 02:09:48;;;;;;;34.90;17.58;;;;;;;8.12;90.16;100511.47;6249298;22;20008;-72
2022/04/18 02:12:14;;;;;;;39.90;17.73;;;;;;;8.04;90.24;100500.97;6249755;22;20008;-72
2022/04/18 02:14:39;;;;;;;37.13;17.83;;;;;;;7.99;90.96;100499.00;6276359;22;20018;-72
2022/04/18 02:17:04;;;;;;;37.33;16.20;;;;;;;7.94;90.62;100504.34;6279675;22;20007;-72
2022/04/18 02:19:30;;;;;;;38.55;15.27;;;;;;;7.88;91.31;100501.78;6224842;22;20012;-71
2022/04/18 02:21:55;;;;;;;32.17;14.68;;;;;;;7.83;90.70;100499.81;6278312;22;20175;-72
2022/04/18 02:24:21;;;;;;;36.80;15.07;;;;;;;7.77;90.32;100507.06;6279792;22;20098;-72
2022/04/18 02:26:46;;;;;;;29.52;13.82;;;;;;;7.72;90.77;100508.88;6278997;22;20010;-71
2022/04/18 02:29:11;;;;;;;21.17;11.38;;;;;;;7.59;90.00;100499.09;6277046;22;20004;-71
2022/04/18 02:32:47;;;;;;;24.33;11.43;;;;;;;7.55;89.40;100504.22;6252011;22;20033;-71
2022/04/18 02:34:22;;;;;;;19.45;9.10;;;;;;;7.43;90.17;100493.41;6278232;22;20011;-73
2022/04/18 02:36:48;;;;;;;15.45;7.90;;;;;;;7.38;89.18;100497.91;6280964;22;20022;-74
2022/04/18 02:39:14;;;;;;;20.67;9.20;;;;;;;7.34;89.82;100494.84;6250303;22;20059;-73
2022/04/18 02:41:39;;;;;;;17.10;9.00;;;;;;;7.28;89.31;100493.09;6281445;22;20000;-71
2022/04/18 02:44:05;;;;;;;19.48;7.95;;;;;;;7.30;89.42;100486.34;6254639;22;20057;-70
2022/04/18 02:46:31;;;;;;;13.68;7.20;;;;;;;7.28;89.43;100490.38;6254276;22;20042;-72
2022/04/18 02:48:56;;;;;;;12.77;6.13;;;;;;;7.18;89.39;100492.88;6253688;22;20003;-71
2022/04/18 02:51:27;;;;;;;10.60;5.05;;;;;;;7.16;88.54;100495.84;6253041;22;20004;-71
2022/04/18 02:53:53;;;;;;;14.40;5.88;;;;;;;7.10;88.86;100496.81;6256110;22;20015;-71
2022/04/18 02:56:19;;;;;;;13.60;5.60;;;;;;;7.11;89.56;100499.31;6225858;22;20441;-71
2022/04/18 02:58:44;;;;;;;13.45;5.68;;;;;;;7.06;88.82;100496.47;6248832;22;20036;-70
2022/04/18 03:01:10;;;;;;;17.45;7.43;;;;;;;7.06;88.38;100495.66;6250239;22;20015;-71
2022/04/18 03:03:35;;;;;;;22.75;8.70;;;;;;;7.08;88.40;100499.78;6275700;22;20004;-72
2022/04/18 03:06:00;;;;;;;14.05;6.90;;;;;;;7.08;88.24;100498.94;6225427;22;20011;-71
2022/04/18 03:08:26;;;;;;;13.75;6.32;;;;;;;7.02;88.92;100489.84;6277329;22;20008;-71
2022/04/18 03:11:04;;;;;;;15.57;7.50;;;;;;;7.02;88.77;100492.56;6278893;22;20053;-70
2022/04/18 03:13:32;;;;;;;15.45;7.10;;;;;;;6.99;88.93;100493.06;6277514;22;20011;-70
2022/04/18 03:15:58;;;;;;;21.15;6.95;;;;;;;6.98;88.61;100499.59;6279163;22;20011;-71
2022/04/18 03:18:24;;;;;;;13.77;6.13;;;;;;;6.92;88.88;100489.66;6222007;22;20080;-71
2022/04/18 03:20:49;;;;;;;11.82;5.25;;;;;;;6.92;87.82;100497.78;6275082;22;20059;-73
2022/04/18 03:23:15;;;;;;;12.10;5.13;;;;;;;6.87;87.71;100492.28;6220381;22;20094;-73
2022/04/18 03:25:40;;;;;;;12.88;4.93;;;;;;;6.80;88.03;100497.81;6245575;22;20031;-71
2022/04/18 03:28:06;;;;;;;14.65;4.53;;;;;;;6.76;87.69;100489.34;6246183;22;20007;-72
2022/04/18 03:30:31;;;;;;;11.95;3.45;;;;;;;6.73;88.28;100495.25;6246432;22;20061;-72
2022/04/18 03:32:57;;;;;;;6.28;2.90;;;;;;;6.73;88.09;100487.09;6273290;22;20011;-72
2022/04/18 03:35:22;;;;;;;6.03;2.80;;;;;;;6.75;88.31;100487.69;6273956;22;20012;-72
2022/04/18 03:40:33;;;;;;;3.22;2.17;;;;;;;6.69;86.71;100496.78;6273073;22;20018;-72
2022/04/18 03:42:59;;;;;;;5.55;1.92;;;;;;;6.62;87.41;100496.09;6246476;22;20394;-73
2022/04/18 03:45:24;;;;;;;2.38;1.35;;;;;;;6.55;87.68;100496.19;6275648;22;20032;-73
2022/04/18 03:47:50;;;;;;;1.90;1.25;;;;;;;6.54;87.47;100500.00;6246054;22;20016;-71
2022/04/18 03:50:15;;;;;;;7.22;1.77;;;;;;;6.59;87.07;100497.38;6276164;22;20031;-72
2022/04/18 03:52:40;;;;;;;4.70;2.20;;;;;;;6.70;87.56;100487.59;6276343;22;20057;-72
2022/04/18 03:55:06;;;;;;;4.85;1.40;;;;;;;6.73;86.67;100487.09;6249545;22;20012;-72
2022/04/18 03:57:32;;;;;;;4.60;1.83;;;;;;;6.73;86.08;100487.09;6247232;22;20030;-72
2022/04/18 03:59:57;;;;;;;3.78;1.23;;;;;;;6.66;85.88;100502.69;6247228;22;20008;-71
2022/04/18 04:02:23;;;;;;;4.57;1.73;;;;;;;6.56;86.45;100502.47;6248378;22;20438;-70
2022/04/18 04:04:48;;;;;;;3.85;1.80;;;;;;;6.51;85.64;100499.63;6250272;22;20006;-71
2022/04/18 04:07:14;;;;;;;4.53;1.67;;;;;;;6.46;85.85;100505.78;6275992;22;20007;-72
2022/04/18 04:09:39;;;;;;;5.30;2.50;;;;;;;6.44;86.72;100495.16;6245951;22;20430;-71
2022/04/18 04:12:06;;;;;;;7.22;2.47;;;;;;;6.41;87.11;100484.75;6249314;22;20008;-71
2022/04/18 04:14:33;;;;;;;8.23;2.53;;;;;;;6.37;86.43;100478.16;6274117;22;20042;-71
2022/04/18 04:16:58;;;;;;;3.92;2.33;;;;;;;6.36;86.72;100484.63;6219017;22;20015;-70
2022/04/18 04:19:24;;;;;;;4.95;2.42;;;;;;;6.31;86.59;100484.53;6276110;22;20004;-71
2022/04/18 04:21:49;;;;;;;4.40;2.08;;;;;;;6.29;86.49;100492.06;6222727;22;20078;-71
2022/04/18 04:24:15;;;;;;;5.40;1.80;;;;;;;6.24;86.92;100494.69;6246234;22;20069;-70
2022/04/18 04:26:40;;;;;;;8.20;1.90;;;;;;;6.18;87.25;100501.06;6248183;22;20007;-71
2022/04/18 04:29:06;;;;;;;3.58;1.50;;;;;;;6.15;87.60;100498.78;6221899;22;20004;-70
2022/04/18 04:31:31;;;;;;;9.32;1.58;;;;;;;6.15;87.76;100496.06;6246179;22;20087;-71
2022/04/18 04:33:57;;;;;;;5.15;1.33;;;;;;;6.17;87.50;100491.25;6274283;22;20008;-70
2022/04/18 04:36:22;;;;;;;7.93;2.10;;;;;;;6.17;87.44;100488.53;6274256;22;20723;-70
2022/04/18 04:38:48;;;;;;;7.65;2.05;;;;;;;6.17;87.61;100493.97;6221207;22;20030;-70
2022/04/18 04:41:14;;;;;;;3.33;1.23;;;;;;;6.15;87.59;100509.66;6247194;22;20303;-70
2022/04/18 04:43:40;;;;;;;3.42;1.17;;;;;;;6.07;87.69;100500.78;6198156;22;20012;-72
2022/04/18 04:46:05;;;;;;;2.00;0.70;;;;;;;5.97;87.78;100499.69;6246175;22;20019;-72
2022/04/18 04:48:31;;;;;;;1.75;0.60;;;;;;;5.94;87.59;100500.97;6247942;22;20381;-72
2022/04/18 04:50:56;;;;;;;3.65;1.02;;;;;;;5.85;87.59;100492.34;6246379;22;20012;-71
2022/04/18 04:53:22;;;;;;;0.77;0.47;;;;;;;5.86;87.48;100501.34;6222738;22;20011;-71
2022/04/18 04:55:48;;;;;;;2.35;1.05;;;;;;;5.86;87.84;100510.28;6245315;22;20011;-71
2022/04/18 04:58:13;;;;;;;5.38;1.10;;;;;;;5.88;88.10;100518.19;6222603;22;20034;-69
2022/04/18 05:00:39;;;;;;;12.60;1.83;;;;;;;5.89;87.35;100509.00;6245306;22;20079;-69
2022/04/18 05:03:05;;;;;;;3.22;1.80;;;;;;;5.91;88.30;100515.00;6273391;22;20011;-70
2022/04/18 05:05:32;;;;;;;8.32;1.95;;;;;;;5.91;87.60;100517.72;6273744;22;20042;-70
2022/04/18 05:07:57;;;;;;;5.43;1.58;;;;;;;5.84;87.63;100519.72;6248336;22;20007;-70
2022/04/18 05:10:23;;;;;;;3.25;1.17;;;;;;;5.77;88.45;100512.50;6222269;22;20023;-70
2022/04/18 05:12:48;;;;;;;6.47;1.88;;;;;;;5.73;88.06;100522.16;6276899;22;20010;-71
2022/04/18 05:15:14;;;;;;;3.80;1.45;;;;;;;5.65;88.90;100514.38;6276456;22;20010;-72
2022/04/18 05:17:39;;;;;;;4.85;1.33;;;;;;;5.68;88.68;100524.75;6278264;22;20082;-71
2022/04/18 05:20:06;;;;;;;8.00;2.17;;;;;;;5.65;89.58;100517.09;6274617;22;20023;-70
2022/04/18 05:22:31;;;;;;;2.05;1.40;;;;;;;5.63;88.77;100519.19;6219900;22;20012;-69
2022/04/18 05:24:57;;;;;;;3.03;1.20;;;;;;;5.53;89.23;100510.78;6272925;22;20069;-69
2022/04/18 05:27:23;;;;;;;6.40;2.13;;;;;;;5.52;89.35;100520.81;6274220;22;20764;-70
2022/04/18 05:29:49;;;;;;;2.25;1.08;;;;;;;5.47;89.11;100519.84;6272894;22;20000;-70
2022/04/18 05:32:15;;;;;;;2.60;1.00;;;;;;;5.48;88.84;100535.88;6270208;22;20441;-70
2022/04/18 05:34:41;;;;;;;2.83;0.80;;;;;;;5.50;88.94;100533.75;6272821;22;20007;-68
2022/04/18 05:37:07;;;;;;;0.80;0.60;;;;;;;5.52;89.14;100531.66;6273923;22;20008;-68
2022/04/18 05:39:33;;;;;;;1.98;0.70;;;;;;;5.66;88.32;100537.72;6273778;22;20077;-69
2022/04/18 05:41:58;;;;;;;2.58;0.60;;;;;;;5.80;88.34;100543.78;6284454;22;20075;-70
2022/04/18 05:44:24;;;;;;;2.53;0.82;;;;;;;5.90;88.49;100545.97;6272430;22;20012;-70
2022/04/18 05:46:49;;;;;;;2.08;0.90;;;;;;;6.02;88.11;100546.00;6281860;22;20012;-69
2022/04/18 05:49:15;;;;;;;1.98;0.60;;;;;;;6.20;87.78;100547.81;6287601;22;20023;-71
2022/04/18 05:51:41;;;;;;;2.05;0.65;;;;;;;6.38;86.78;100549.59;6265288;22;19992;-71
2022/04/18 05:54:07;;;;;;;1.63;0.80;;;;;;;6.58;86.30;100549.25;6258597;22;20083;-74
2022/04/18 05:56:33;;;;;;;1.15;0.73;;;;;;;6.81;85.91;100554.66;6231530;22;20004;-73
2022/04/18 05:58:59;;;;;;;0.52;0.43;;;;;;;7.04;85.37;100553.00;6286025;22;20008;-74
2022/04/18 06:01:24;;;;;;;2.60;1.27;;;;;;;7.17;84.50;100541.03;6282436;22;20015;-72
2022/04/18 06:03:50;;;;;;;3.35;1.50;;;;;;;7.41;83.53;100558.09;6249674;22;20000;-70
2022/04/18 06:06:16;;;;;;;4.13;1.52;;;;;;;7.59;83.60;100561.69;6251195;22;20008;-70
2022/04/18 06:09:06;;;;;;;6.05;1.60;;;;;;;7.69;82.43;100548.28;6278313;22;20004;-70
2022/04/18 06:11:44;;;;;;;2.88;1.10;;;;;;;7.80;82.05;100554.75;6277194;22;20046;-69
2022/04/18 06:14:10;;;;;;;4.55;1.70;;;;;;;7.95;81.22;100562.38;6223622;22;20397;-70
2022/04/18 06:16:35;;;;;;;3.97;1.50;;;;;;;8.06;81.41;100563.34;6249116;22;20008;-70
2022/04/18 06:19:01;;;;;;;8.73;2.25;;;;;;;8.14;81.04;100571.94;6220510;22;20086;-69
2022/04/18 06:21:26;;;;;;;8.43;1.90;;;;;;;8.15;80.36;100573.63;6248451;22;20000;-70
2022/04/18 06:23:52;;;;;;;4.72;1.75;;;;;;;8.12;80.88;100570.53;6247564;22;20110;-70
2022/04/18 06:26:17;;;;;;;8.23;2.47;;;;;;;8.15;81.05;100583.69;6247918;22;20023;-68
2022/04/18 06:28:43;;;;;;;7.65;1.75;;;;;;;8.14;80.36;100580.13;6274322;22;20011;-69
2022/04/18 06:31:08;;;;;;;4.65;2.17;;;;;;;8.25;80.69;100591.19;6221538;22;20016;-69
2022/04/18 06:33:34;;;;;;;5.57;2.05;;;;;;;8.34;79.90;100582.38;6273779;22;20045;-68
2022/04/18 06:36:01;;;;;;;9.52;1.98;;;;;;;8.43;79.51;100588.25;6271897;22;20000;-69
2022/04/18 06:38:28;;;;;;;7.80;1.40;;;;;;;8.49;79.86;100579.09;6273493;22;20099;-70
2022/04/18 06:40:55;;;;;;;4.82;1.70;;;;;;;8.61;78.92;100591.81;6244487;22;20035;-68
2022/04/18 06:43:20;;;;;;;6.78;1.85;;;;;;;8.70;78.88;100584.88;6271556;22;20018;-68
2022/04/18 06:45:46;;;;;;;6.28;1.77;;;;;;;8.87;78.24;100598.47;6272614;22;20004;-68
2022/04/18 06:48:11;;;;;;;3.92;1.63;;;;;;;9.05;77.95;100592.75;6271957;22;20142;-69
2022/04/18 06:50:36;;;;;;;3.35;1.30;;;;;;;9.29;77.01;100602.59;6245287;22;20063;-69
2022/04/18 06:53:02;;;;;;;8.80;1.88;;;;;;;9.43;75.86;100604.72;6271179;22;20057;-68
2022/04/18 06:56:58;;;;;;;7.50;1.90;;;;;;;9.57;75.50;100607.88;6246000;22;20039;-68
2022/04/18 06:58:13;;;;;;;5.28;1.67;;;;;;;9.67;74.33;100609.09;6272527;22;20015;-71
2022/04/18 07:00:38;;;;;;;6.47;1.50;;;;;;;9.74;74.72;100615.19;6244505;22;20174;-68
2022/04/18 07:03:04;;;;;;;5.75;1.75;;;;;;;9.91;73.85;100610.41;6213250;22;20392;-69
2022/04/18 07:05:29;;;;;;;10.20;2.20;;;;;;;10.01;73.33;100609.72;6241037;22;20011;-70
2022/04/18 07:07:54;;;;;;;5.95;1.30;;;;;;;10.17;73.29;100618.06;6243821;22;20061;-69
2022/04/18 07:10:20;;;;;;;6.60;1.67;;;;;;;10.25;72.52;100626.63;6270247;22;20083;-69
2022/04/18 07:12:45;;;;;;;4.00;1.55;;;;;;;10.33;71.86;100621.78;6270462;22;20003;-69
2022/04/18 07:15:11;;;;;;;5.00;1.25;;;;;;;10.46;71.51;100626.84;6274230;22;20358;-69
2022/04/18 07:17:36;;;;;;;8.30;2.28;;;;;;;10.67;70.53;100621.53;6222979;22;20000;-69
2022/04/18 07:20:02;;;;;;;2.70;0.88;;;;;;;10.86;70.23;100625.50;6274763;22;20004;-69
2022/04/18 07:22:27;;;;;;;11.52;2.65;;;;;;;11.10;69.79;100619.66;6275037;22;20039;-70
2022/04/18 07:24:52;;;;;;;7.80;1.10;;;;;;;11.45;68.87;100623.66;6195964;23;20069;-69
2022/04/18 07:27:18;;;;;;;9.95;1.70;;;;;;;11.70;67.50;100637.44;6218019;23;20012;-68
2022/04/18 07:29:43;;;;;;;13.93;2.13;;;;;;;12.03;67.18;100632.66;6244386;23;20044;-70
2022/04/18 07:32:09;;;;;;;6.13;1.63;;;;;;;12.19;65.44;100624.44;6192719;23;20047;-69
2022/04/18 07:34:35;;;;;;;7.00;1.10;;;;;;;12.37;66.04;100626.66;6218141;23;20316;-69
2022/04/18 07:37:00;;;;;;;6.50;1.40;;;;;;;12.68;64.89;100625.84;6216228;23;20095;-69
2022/04/18 07:39:25;;;;;;;2.45;1.10;;;;;;;12.69;63.85;100631.06;6244817;23;20034;-69
2022/04/18 07:41:51;;;;;;;3.40;1.00;;;;;;;12.95;63.85;100636.50;6218535;23;20014;-70
2022/04/18 07:44:17;;;;;;;8.18;1.45;;;;;;;13.14;62.13;100635.94;6245064;23;20010;-69
2022/04/18 07:46:43;;;;;;;8.10;1.70;;;;;;;13.19;62.51;100627.69;6245794;23;20010;-70
2022/04/18 07:49:08;;;;;;;4.95;1.30;;;;;;;13.27;61.66;100627.09;6216753;23;20015;-70
2022/04/18 07:51:40;;;;;;;3.47;1.00;;;;;;;13.41;62.10;100638.38;6245538;23;20015;-69
2022/04/18 07:54:07;;;;;;;4.07;1.00;;;;;;;13.74;61.57;100642.34;6217959;23;20030;-70
2022/04/18 07:56:58;;;;;;;5.55;1.10;;;;;;;13.85;61.36;100636.81;6247768;23;20008;-73
2022/04/18 07:59:27;;;;;;;7.03;1.45;;;;;;;13.80;59.93;100640.41;6222666;23;20039;-73
2022/04/18 08:01:52;;;;;;;9.57;2.15;;;;;;;13.77;59.62;100633.53;6221691;23;20000;-72
2022/04/18 08:04:18;;;;;;;5.47;1.08;;;;;;;13.73;60.14;100618.72;6221379;23;20121;-72
2022/04/18 08:06:46;;;;;;;3.40;1.05;;;;;;;13.90;59.60;100609.28;6192531;23;20760;-70
2022/04/18 08:09:13;;;;;;;3.40;1.17;;;;;;;14.07;58.79;100639.16;6217071;23;20487;-72
2022/04/18 08:11:39;;;;;;;2.92;0.93;;;;;;;14.07;58.58;100631.72;6242454;23;20000;-71
2022/04/18 08:14:04;;;;;;;6.50;2.08;;;;;;;14.09;58.20;100636.94;6218437;23;20008;-71
2022/04/18 08:16:30;;;;;;;5.50;1.30;;;;;;;14.27;58.23;100628.03;6245106;23;20072;-71
2022/04/18 08:19:00;;;;;;;6.78;1.17;;;;;;;14.46;57.92;100619.91;6214043;23;20004;-71
2022/04/18 08:21:26;;;;;;;2.70;1.13;;;;;;;14.62;56.96;100614.31;6191692;23;20004;-71
2022/04/18 08:23:52;;;;;;;5.32;1.13;;;;;;;14.65;56.18;100625.56;6240337;22;20190;-70
2022/04/18 08:26:19;;;;;;;5.15;1.20;;;;;;;14.72;55.94;100633.50;6273313;22;20795;-70
2022/04/18 08:28:45;;;;;;;7.88;1.08;;;;;;;15.01;55.08;100627.97;6222027;22;20307;-70
2022/04/18 08:31:13;;;;;;;7.13;1.45;;;;;;;15.05;54.41;100627.41;6276088;22;20011;-73
2022/04/18 08:33:41;;;;;;;1.33;0.70;;;;;;;15.44;54.40;100621.72;6250811;22;20004;-71
2022/04/18 08:36:06;;;;;;;13.25;1.48;;;;;;;15.98;52.83;100635.41;6271047;22;20000;-71
2022/04/18 08:38:32;;;;;;;2.67;1.00;;;;;;;16.27;51.98;100634.44;6271587;22;20442;-70
2022/04/18 08:41:04;;;;;;;3.35;0.85;;;;;;;16.64;50.51;100633.56;6274372;22;20007;-70
2022/04/18 08:43:29;;;;;;;4.15;1.38;;;;;;;16.57;50.22;100631.19;6276911;22;20022;-70
2022/04/18 08:45:56;;;;;;;6.55;1.02;;;;;;;16.67;49.62;100623.84;6279271;22;20004;-72
2022/04/18 08:53:56;;;;;;;9.60;2.00;;;;;;;20.32;41.85;100631.66;6275190;22;20061;-73
2022/04/18 08:56:36;;;;;;;9.27;1.40;;;;;;;20.21;39.76;100616.50;6275359;22;20003;-73
2022/04/18 08:59:02;;;;;;;3.78;1.33;;;;;;;20.49;40.03;100625.28;6273223;22;19996;-72
2022/04/18 09:01:27;;;;;;;7.40;0.95;;;;;;;21.13;39.57;100634.00;6270833;22;20003;-70
2022/04/18 09:03:54;;;;;;;3.80;1.13;;;;;;;21.36;38.57;100638.16;6256641;22;20011;-72
2022/04/18 09:06:24;;;;;;;3.00;1.00;;;;;;;22.03;38.13;100644.00;6282919;22;20022;-71
2022/04/18 09:08:55;;;;;;;2.78;1.13;;;;;;;22.87;36.53;100647.91;6308356;22;20027;-71
2022/04/18 09:11:30;;;;;;;6.50;1.58;;;;;;;22.61;33.79;100647.00;6308877;22;19999;-70
2022/04/18 09:14:07;;;;;;;6.65;1.63;;;;;;;21.64;34.44;100634.97;6307637;22;20065;-72
2022/04/18 09:16:34;;;;;;;6.00;1.25;;;;;;;20.98;35.78;100638.94;6311930;22;20014;-71
2022/04/18 09:19:05;;;;;;;3.17;1.30;;;;;;;21.20;34.97;100649.03;6279897;22;20007;-70
2022/04/18 09:21:32;;;;;;;5.13;1.25;;;;;;;20.92;34.36;100634.72;6308734;22;20007;-72
2022/04/18 09:23:57;;;;;;;4.95;1.30;;;;;;;21.95;34.93;100642.13;6275941;22;20024;-69
2022/04/18 09:26:24;;;;;;;3.72;1.40;;;;;;;23.43;31.42;100639.88;6249556;22;20637;-70
2022/04/18 09:28:50;;;;;;;8.73;1.60;;;;;;;24.58;29.83;100635.00;6277269;22;20365;-70
2022/04/18 09:31:19;;;;;;;5.82;1.20;;;;;;;25.94;28.72;100631.25;6273096;22;20006;-70
2022/04/18 09:33:56;;;;;;;3.15;1.20;;;;;;;28.45;27.22;100638.06;6249270;22;20042;-70
2022/04/18 09:36:23;;;;;;;3.70;1.17;;;;;;;29.51;25.70;100633.09;6250121;22;19996;-72
2022/04/18 09:38:54;;;;;;;3.10;1.00;;;;;;;29.95;24.07;100637.84;6279717;22;19991;-73
2022/04/18 09:41:24;;;;;;;2.58;0.80;;;;;;;29.94;24.18;100624.94;6251327;22;20031;-73
2022/04/18 09:43:53;;;;;;;6.40;1.58;;;;;;;28.17;24.60;100634.50;6253466;22;19999;-72
2022/04/18 09:46:19;;;;;;;2.92;1.00;;;;;;;25.78;28.09;100630.50;6226601;22;20024;-72
2022/04/18 09:48:46;;;;;;;6.68;1.42;;;;;;;24.49;29.57;100631.56;6280834;22;20012;-72
2022/04/18 09:51:22;;;;;;;4.07;1.13;;;;;;;23.32;30.80;100625.59;6285706;22;20012;-72
2022/04/18 09:53:52;;;;;;;3.65;1.10;;;;;;;23.01;32.31;100615.78;6269774;22;20003;-71
2022/04/18 09:56:21;;;;;;;5.13;1.00;;;;;;;24.37;30.89;100620.44;6297578;22;20091;-73
2022/04/18 09:58:47;;;;;;;6.45;1.58;;;;;;;25.51;27.61;100616.28;6271623;22;20345;-71
2022/04/18 10:01:13;;;;;;;3.97;1.08;;;;;;;24.66;28.44;100612.88;6246019;22;20011;-73
2022/04/18 10:03:40;;;;;;;2.53;0.90;;;;;;;24.15;30.19;100622.63;6299234;22;20015;-74
2022/04/18 10:06:07;;;;;;;3.10;1.08;;;;;;;24.26;30.16;100622.13;6296254;22;20471;-72
2022/04/18 10:08:37;;;;;;;2.17;0.65;;;;;;;24.74;29.95;100618.31;6258841;22;20012;-75
2022/04/18 10:11:08;;;;;;;7.18;1.52;;;;;;;25.12;28.20;100618.91;6253653;22;20402;-74
2022/04/18 10:13:36;;;;;;;6.55;1.50;;;;;;;25.19;27.08;100613.47;6283618;22;20007;-73
2022/04/18 10:16:03;;;;;;;4.25;1.10;;;;;;;25.41;27.16;100614.03;6253191;22;20335;-74
2022/04/18 10:18:29;;;;;;;7.22;1.20;;;;;;;25.86;26.73;100612.69;6252619;22;20608;-72
2022/04/18 10:21:25;;;;;;;5.72;1.35;;;;;;;26.18;26.92;100637.84;6251627;22;20007;-72
2022/04/18 10:24:35;;;;;;;4.88;1.17;;;;;;;26.76;26.31;100637.00;6230806;22;20020;-72
2022/04/18 10:27:47;;;;;;;9.65;1.83;;;;;;;28.54;22.17;100630.91;6160824;23;20040;-72
2022/04/18 10:30:36;;;;;;;6.20;1.40;;;;;;;29.17;22.27;100621.94;6098283;23;20324;-75
2022/04/18 10:33:12;;;;;;;5.03;1.30;;;;;;;31.16;20.22;100618.88;6248188;23;20003;-74
2022/04/18 10:36:09;;;;;;;8.80;1.48;;;;;;;32.40;18.62;100632.38;6223473;23;20023;-74
2022/04/18 10:42:22;;;;;;;2.97;1.10;;;;;;;34.56;16.06;100630.47;6249857;23;20012;-76
2022/04/18 10:48:13;;;;;;;4.50;1.20;;;;;;;32.96;15.75;100584.34;6249158;23;20015;-72
2022/04/18 10:51:33;;;;;;;4.10;1.17;;;;;;;33.09;16.58;100613.00;6222606;23;20008;-74
2022/04/18 10:54:09;;;;;;;6.05;1.20;;;;;;;33.16;16.34;100609.28;6173180;23;20070;-74
2022/04/18 10:56:48;;;;;;;4.18;0.93;;;;;;;34.20;15.42;100602.56;6245165;23;20047;-73
2022/04/18 10:59:15;;;;;;;5.10;1.10;;;;;;;33.98;14.76;100618.22;6247074;23;20000;-72
2022/04/18 11:01:41;;;;;;;3.90;0.95;;;;;;;33.72;14.56;100606.34;6248154;23;20369;-73
2022/04/18 11:04:11;;;;;;;3.30;0.98;;;;;;;32.56;15.51;100602.81;6217600;23;20015;-75
2022/04/18 11:06:42;;;;;;;5.57;1.17;;;;;;;32.05;16.16;100600.19;6246033;23;20006;-74
2022/04/18 11:09:09;;;;;;;3.08;0.82;;;;;;;32.56;15.14;100600.78;6220592;23;20008;-75
2022/04/18 11:11:53;;;;;;;3.42;0.63;;;;;;;31.79;15.79;100596.66;6247979;23;20035;-74
2022/04/18 11:14:21;;;;;;;6.18;1.35;;;;;;;31.97;16.02;100599.41;6247308;23;20099;-74
2022/04/18 11:16:52;;;;;;;5.00;1.08;;;;;;;32.03;16.03;100596.97;6246625;23;20004;-76
2022/04/18 11:19:32;;;;;;;9.15;1.10;;;;;;;32.06;17.20;100601.81;6223893;23;20027;-76
2022/04/18 11:21:59;;;;;;;7.15;1.30;;;;;;;34.30;14.84;100594.34;6226191;23;20003;-74
2022/04/18 11:25:31;;;;;;;7.13;1.25;;;;;;;35.87;14.50;100610.09;6235471;22;20022;-75
2022/04/18 11:28:02;;;;;;;5.82;1.45;;;;;;;38.67;12.49;100589.16;6159292;23;20013;-76
2022/04/18 11:30:53;;;;;;;6.75;1.13;;;;;;;36.96;13.40;100595.13;6157200;23;20021;-74
2022/04/18 11:34:14;;;;;;;5.40;1.20;;;;;;;38.33;12.96;100584.91;6131855;23;20012;-74
2022/04/18 11:37:53;;;;;;;6.70;1.48;;;;;;;39.62;11.05;100599.88;6104215;23;20419;-73
2022/04/18 11:47:32;;;;;;;5.28;1.75;;;;;;;40.06;10.60;100607.69;6090937;23;20024;-72
2022/04/18 11:50:01;;;;;;;;;;;;;;;39.70;11.36;100592.63;6267707;22;20321;-72
2022/04/18 11:59:20;;;;;;;3.88;0.95;;;;;;;38.95;11.55;100573.13;6305321;22;20007;-72
2022/04/18 12:06:44;;;;;;;7.35;1.10;;;;;;;40.85;10.26;100580.88;6306626;22;20014;-70
2022/04/18 12:07:31;;;;;;;4.22;0.90;;;;;;;42.45;9.45;100581.94;6236863;22;20414;-71
2022/04/18 12:09:59;;;;;;;1.95;0.88;;;;;;;44.07;9.50;100585.13;6307006;22;19996;-71
2022/04/18 12:12:29;;;;;;;3.67;1.23;;;;;;;44.81;8.00;100590.00;6306968;22;20003;-71